Time;durP1;ratioP1;P1;durP2;ratioP2;P2;SDS_P1;SDS_P2;PMS_P1;PMS_P2;Temp;Humidity;BMP_temperature;BMP_pressure;BME280_temperature;BME280_humidity;BME280_pressure;Samples;Min_cycle;Max_cycle;Signal;HPM_P1;HPM_P2
2023/01/19 00:00:10;;;;;;;;;;;;;;;3.30;100.00;97658.28;5068779;28;19920;-75
2023/01/19 00:02:36;;;;;;;;;;;;;;;3.35;100.00;97657.31;5069050;28;20366;-74
2023/01/19 00:05:02;;;;;;;;;;;;;;;3.22;100.00;97665.28;5054142;28;19973;-74
2023/01/19 00:07:28;;;;;;;;;;;;;;;2.97;100.00;97659.94;5052486;28;19927;-74
2023/01/19 00:09:54;;;;;;;;;;;;;;;3.56;100.00;97671.19;5053034;28;20002;-74
2023/01/19 00:12:19;;;;;;;;;;;;;;;3.32;100.00;97665.00;5071572;28;19997;-74
2023/01/19 00:14:44;;;;;;;;;;;;;;;3.24;100.00;97664.38;5071425;28;19916;-74
2023/01/19 00:17:09;;;;;;;;;;;;;;;3.30;100.00;97682.00;5073262;28;20022;-74
2023/01/19 00:19:34;;;;;;;;;;;;;;;3.01;100.00;97681.84;5070478;28;20027;-74
2023/01/19 00:22:00;;;;;;;;;;;;;;;3.14;100.00;97694.25;5071569;28;20393;-74
2023/01/19 00:24:25;;;;;;;;;;;;;;;2.99;100.00;97693.75;5051280;28;19927;-74
2023/01/19 00:26:50;;;;;;;;;;;;;;;3.18;100.00;97689.13;5072414;28;19999;-74
2023/01/19 00:29:15;;;;;;;;;;;;;;;3.40;100.00;97694.50;5071442;28;19921;-74
2023/01/19 00:31:41;;;;;;;;;;;;;;;3.50;100.00;97691.69;5053207;28;19927;-74
2023/01/19 00:34:06;;;;;;;;;;;;;;;3.37;100.00;97697.97;5053033;28;19973;-74
2023/01/19 00:36:31;;;;;;;;;;;;;;;3.14;100.00;97694.25;5052778;28;19972;-74
2023/01/19 00:38:57;;;;;;;;;;;;;;;3.03;100.00;97693.66;5051770;28;19928;-73
2023/01/19 00:42:38;;;;;;;;;;;;;;;3.28;100.00;97699.00;5051578;28;19923;-73
2023/01/19 00:44:07;;;;;;;;;;;;;;;3.60;100.00;97701.66;5054796;28;19967;-74
2023/01/19 00:46:33;;;;;;;;;;;;;;;3.59;100.00;97700.81;5052480;28;19955;-74
2023/01/19 00:48:58;;;;;;;;;;;;;;;3.51;100.00;97692.53;5053481;28;20589;-74
2023/01/19 00:51:24;;;;;;;;;;;;;;;3.26;100.00;97688.06;5070840;28;20346;-74
2023/01/19 00:53:49;;;;;;;;;;;;;;;3.29;100.00;97685.44;5070779;28;20318;-74
2023/01/19 00:56:14;;;;;;;;;;;;;;;3.48;100.00;97687.53;5070932;28;19927;-73
2023/01/19 00:58:39;;;;;;;;;;;;;;;3.58;100.00;97683.03;5072311;28;19924;-74
2023/01/19 01:01:05;;;;;;;;;;;;;;;3.49;100.00;97684.09;5071347;28;20020;-73
2023/01/19 01:03:30;;;;;;;;;;;;;;;3.48;100.00;97683.28;5069686;28;19927;-73
2023/01/19 01:05:55;;;;;;;;;;;;;;;3.51;100.00;97684.91;5053237;28;20378;-73
2023/01/19 01:08:21;;;;;;;;;;;;;;;3.80;100.00;97689.25;5071282;28;19920;-74
2023/01/19 01:10:46;;;;;;;;;;;;;;;3.42;100.00;97675.81;5071726;28;19927;-73
2023/01/19 01:13:11;;;;;;;;;;;;;;;3.61;100.00;97683.81;5072552;28;19921;-74
2023/01/19 01:15:36;;;;;;;;;;;;;;;3.68;100.00;97692.97;5073005;28;19916;-74
2023/01/19 01:18:01;;;;;;;;;;;;;;;3.73;100.00;97692.84;5053212;28;19920;-74
2023/01/19 01:20:29;;;;;;;;;;;;;;;3.77;100.00;97682.53;5070459;28;19976;-75
2023/01/19 01:22:54;;;;;;;;;;;;;;;3.69;100.00;97692.06;5052595;28;19920;-74
2023/01/19 01:25:21;;;;;;;;;;;;;;;3.50;100.00;97693.41;5071934;28;19971;-74
2023/01/19 01:27:46;;;;;;;;;;;;;;;3.64;100.00;97708.34;5052451;28;19954;-75
2023/01/19 01:30:12;;;;;;;;;;;;;;;3.46;100.00;97709.63;5050889;28;20374;-75
2023/01/19 01:32:37;;;;;;;;;;;;;;;3.53;100.00;97726.44;5054964;28;19920;-74
2023/01/19 01:35:03;;;;;;;;;;;;;;;3.80;100.00;97713.91;5074726;28;19927;-75
2023/01/19 01:37:28;;;;;;;;;;;;;;;3.66;100.00;97719.34;5057313;28;19955;-75
2023/01/19 01:39:53;;;;;;;;;;;;;;;3.62;100.00;97720.28;5076350;28;20658;-74
2023/01/19 01:42:19;;;;;;;;;;;;;;;3.38;100.00;97721.72;5075671;28;19920;-74
2023/01/19 01:44:50;;;;;;;;;;;;;;;3.80;100.00;97719.00;5073852;28;19920;-74
2023/01/19 01:47:17;;;;;;;;;;;;;;;3.77;100.00;97709.72;5075573;28;20064;-74
2023/01/19 01:49:42;;;;;;;;;;;;;;;3.80;100.00;97708.78;5057248;28;20282;-74
2023/01/19 01:52:07;;;;;;;;;;;;;;;3.53;100.00;97706.88;5075612;28;19973;-74
2023/01/19 01:54:33;;;;;;;;;;;;;;;3.46;100.00;97712.19;5055221;28;19924;-75
2023/01/19 01:56:59;;;;;;;;;;;;;;;3.59;100.00;97715.28;5056364;28;19987;-74
2023/01/19 01:59:25;;;;;;;;;;;;;;;3.95;100.00;97711.78;5056377;28;20073;-74
2023/01/19 02:05:02;;;;;;;;;;;;;;;3.97;100.00;97704.13;5057646;28;19946;-75
2023/01/19 02:13:17;;;;;;;;;;;;;;;3.40;100.00;97700.44;5059226;28;20008;-74
2023/01/19 02:15:42;;;;;;;;;;;;;;;3.34;100.00;97701.41;5073709;28;19916;-74
2023/01/19 02:18:07;;;;;;;;;;;;;;;3.46;100.00;97718.09;5075064;28;19927;-74
2023/01/19 02:20:32;;;;;;;;;;;;;;;3.40;100.00;97719.94;5055849;28;19920;-74
2023/01/19 02:22:59;;;;;;;;;;;;;;;2.80;100.00;97711.97;5073688;28;20117;-74
2023/01/19 02:25:25;;;;;;;;;;;;;;;2.99;100.00;97726.81;5054789;28;19964;-74
2023/01/19 02:27:51;;;;;;;;;;;;;;;3.25;100.00;97739.81;5072938;28;19920;-75
2023/01/19 02:30:16;;;;;;;;;;;;;;;3.15;100.00;97743.44;5054462;28;19920;-74
2023/01/19 02:32:41;;;;;;;;;;;;;;;3.32;100.00;97748.97;5073876;28;20066;-74
2023/01/19 02:35:07;;;;;;;;;;;;;;;3.40;100.00;97748.81;5056609;28;19920;-75
2023/01/19 02:37:33;;;;;;;;;;;;;;;3.22;100.00;97752.59;5055154;28;19920;-74
2023/01/19 02:39:59;;;;;;;;;;;;;;;3.47;100.00;97744.41;5057334;28;19977;-74
2023/01/19 02:42:26;;;;;;;;;;;;;;;3.52;100.00;97755.31;5054400;28;19920;-74
2023/01/19 02:44:52;;;;;;;;;;;;;;;2.94;100.00;97737.09;5055956;28;19955;-74
2023/01/19 02:47:18;;;;;;;;;;;;;;;2.80;100.00;97749.28;5052915;28;19917;-74
2023/01/19 02:49:43;;;;;;;;;;;;;;;3.53;100.00;97767.16;5054052;28;19920;-74
2023/01/19 02:52:14;;;;;;;;;;;;;;;3.49;100.00;97756.22;5055837;28;20370;-74
2023/01/19 02:54:45;;;;;;;;;;;;;;;3.76;100.00;97757.25;5054937;28;20120;-75
2023/01/19 02:57:31;;;;;;;;;;;;;;;3.44;100.00;97747.84;5072838;28;19975;-74
2023/01/19 03:00:02;;;;;;;;;;;;;;;3.28;100.00;97752.44;5045720;28;19924;-74
2023/01/19 03:02:46;;;;;;;;;;;;;;;3.57;100.00;97756.03;5072740;28;19967;-75
2023/01/19 03:05:24;;;;;;;;;;;;;;;3.83;100.00;97762.19;5063844;28;19920;-74
2023/01/19 03:07:58;;;;;;;;;;;;;;;3.41;100.00;97752.19;5048748;28;19925;-74
2023/01/19 03:10:30;;;;;;;;;;;;;;;3.75;100.00;97755.56;5073098;28;20035;-74
2023/01/19 03:13:13;;;;;;;;;;;;;;;3.37;100.00;97740.38;5074417;28;19959;-74
2023/01/19 03:15:48;;;;;;;;;;;;;;;3.42;100.00;97744.53;5074171;28;19924;-75
2023/01/19 03:18:13;;;;;;;;;;;;;;;3.86;100.00;97744.31;5075293;28;19941;-75
2023/01/19 03:20:39;;;;;;;;;;;;;;;3.76;100.00;97738.59;5054571;28;20031;-75
2023/01/19 03:23:05;;;;;;;;;;;;;;;3.88;100.00;97735.75;5055444;28;19920;-75
2023/01/19 03:25:32;;;;;;;;;;;;;;;3.80;100.00;97730.00;5046290;28;19920;-74
2023/01/19 03:27:57;;;;;;;;;;;;;;;3.58;100.00;97722.06;5055122;28;19932;-74
2023/01/19 03:30:26;;;;;;;;;;;;;;;4.09;100.00;97736.91;5071282;28;20370;-74
2023/01/19 03:32:53;;;;;;;;;;;;;;;3.92;100.00;97729.72;5055240;28;19920;-74
2023/01/19 03:35:20;;;;;;;;;;;;;;;3.76;100.00;97726.72;5051667;28;19920;-74
2023/01/19 03:37:46;;;;;;;;;;;;;;;3.80;100.00;97729.16;5053128;28;19924;-75
2023/01/19 03:40:11;;;;;;;;;;;;;;;3.73;100.00;97729.31;5072713;28;19923;-75
2023/01/19 03:42:37;;;;;;;;;;;;;;;3.74;100.00;97731.00;5071064;28;19920;-75
2023/01/19 03:45:02;;;;;;;;;;;;;;;4.03;100.00;97734.50;5055786;28;20382;-74
2023/01/19 03:47:27;;;;;;;;;;;;;;;3.55;100.00;97719.59;5054952;28;19930;-75
2023/01/19 03:49:53;;;;;;;;;;;;;;;3.98;100.00;97728.69;5053777;28;19974;-74
2023/01/19 03:52:26;;;;;;;;;;;;;;;4.05;100.00;97725.09;5054287;28;20136;-74
2023/01/19 03:54:51;;;;;;;;;;;;;;;3.29;100.00;97715.13;5053072;28;20503;-74
2023/01/19 03:57:17;;;;;;;;;;;;;;;3.39;100.00;97721.66;5054839;28;19920;-74
2023/01/19 03:59:42;;;;;;;;;;;;;;;3.71;100.00;97730.22;5072561;28;19931;-74
2023/01/19 04:02:07;;;;;;;;;;;;;;;3.56;100.00;97726.38;5071598;28;19920;-74
2023/01/19 04:04:32;;;;;;;;;;;;;;;3.90;100.00;97725.50;5071967;28;19920;-74
2023/01/19 04:06:58;;;;;;;;;;;;;;;3.79;100.00;97723.25;5074879;28;20032;-74
2023/01/19 04:09:24;;;;;;;;;;;;;;;3.81;100.00;97718.09;5072807;28;20058;-74
2023/01/19 04:11:50;;;;;;;;;;;;;;;4.13;100.00;97710.47;5054077;28;19924;-74
2023/01/19 04:14:15;;;;;;;;;;;;;;;4.01;100.00;97707.41;5053438;28;20355;-74
2023/01/19 04:16:40;;;;;;;;;;;;;;;4.08;100.00;97699.56;5073032;28;20435;-75
2023/01/19 04:19:05;;;;;;;;;;;;;;;4.39;100.00;97698.72;5070733;28;19928;-76
2023/01/19 04:21:31;;;;;;;;;;;;;;;3.76;100.00;97693.63;5068838;28;20003;-74
2023/01/19 04:23:56;;;;;;;;;;;;;;;3.78;100.00;97701.19;5071484;28;19924;-75
2023/01/19 04:26:21;;;;;;;;;;;;;;;4.02;100.00;97698.91;5070492;28;19927;-74
2023/01/19 04:28:47;;;;;;;;;;;;;;;3.65;100.00;97693.03;5053643;28;19920;-74
2023/01/19 04:31:13;;;;;;;;;;;;;;;3.89;100.00;97709.38;5052801;28;19963;-74
2023/01/19 04:33:38;;;;;;;;;;;;;;;3.98;100.00;97705.78;5054592;28;19920;-80
2023/01/19 04:36:03;;;;;;;;;;;;;;;3.95;100.00;97706.69;5053011;28;19950;-75
2023/01/19 04:38:28;;;;;;;;;;;;;;;3.44;100.00;97696.09;5073988;28;19927;-75
2023/01/19 04:40:54;;;;;;;;;;;;;;;4.01;100.00;97713.31;5072067;28;19924;-75
2023/01/19 04:43:19;;;;;;;;;;;;;;;3.13;100.00;97702.75;5070873;28;19924;-76
2023/01/19 04:45:45;;;;;;;;;;;;;;;3.61;100.00;97711.81;5055606;28;20475;-81
2023/01/19 04:48:10;;;;;;;;;;;;;;;3.82;100.00;97712.97;5059215;28;19951;-76
2023/01/19 04:50:36;;;;;;;;;;;;;;;3.16;100.00;97712.03;5056380;28;19921;-76
2023/01/19 04:53:01;;;;;;;;;;;;;;;3.69;100.00;97719.25;5079645;28;19900;-75
2023/01/19 04:55:26;;;;;;;;;;;;;;;4.11;100.00;97729.22;5048281;28;19917;-75
2023/01/19 04:57:53;;;;;;;;;;;;;;;3.98;100.00;97723.59;5069836;28;19924;-77
2023/01/19 05:00:18;;;;;;;;;;;;;;;3.58;100.00;97717.00;5069842;28;19976;-75
2023/01/19 05:02:44;;;;;;;;;;;;;;;3.57;100.00;97712.75;5053660;28;19963;-76
2023/01/19 05:05:09;;;;;;;;;;;;;;;3.52;100.00;97719.69;5070449;28;20413;-75
2023/01/19 05:07:34;;;;;;;;;;;;;;;3.17;100.00;97708.63;5071282;28;19927;-76
2023/01/19 05:09:59;;;;;;;;;;;;;;;3.49;100.00;97714.63;5070439;28;20409;-75
2023/01/19 05:12:25;;;;;;;;;;;;;;;3.49;100.00;97719.72;5052854;28;19919;-75
2023/01/19 05:14:50;;;;;;;;;;;;;;;4.01;100.00;97731.16;5070102;28;20493;-75
2023/01/19 05:17:15;;;;;;;;;;;;;;;3.44;100.00;97713.91;5071019;28;20314;-77
2023/01/19 05:19:41;;;;;;;;;;;;;;;3.97;100.00;97720.22;5049900;28;20302;-76
2023/01/19 05:22:06;;;;;;;;;;;;;;;3.65;100.00;97723.59;5069731;28;20665;-76
2023/01/19 05:24:31;;;;;;;;;;;;;;;3.37;100.00;97722.56;5053845;28;19920;-75
2023/01/19 05:26:56;;;;;;;;;;;;;;;3.67;100.00;97723.53;5069952;28;20874;-76
2023/01/19 05:29:22;;;;;;;;;;;;;;;3.36;100.00;97714.13;5053388;28;19927;-76
2023/01/19 05:31:47;;;;;;;;;;;;;;;3.57;100.00;97722.94;5049828;28;19920;-75
2023/01/19 05:34:13;;;;;;;;;;;;;;;3.30;100.00;97715.06;5072517;28;19922;-75
2023/01/19 05:36:38;;;;;;;;;;;;;;;3.87;100.00;97726.41;5050054;28;19912;-78
2023/01/19 05:39:03;;;;;;;;;;;;;;;3.56;100.00;97718.72;5071191;28;20433;-75
2023/01/19 05:41:29;;;;;;;;;;;;;;;3.83;100.00;97731.63;5070464;28;19944;-75
2023/01/19 05:43:54;;;;;;;;;;;;;;;3.75;100.00;97722.47;5069031;28;20003;-75
2023/01/19 05:46:19;;;;;;;;;;;;;;;3.08;100.00;97714.75;5055756;28;19927;-76
2023/01/19 05:48:45;;;;;;;;;;;;;;;3.38;100.00;97721.72;5069278;28;20734;-75
2023/01/19 05:51:10;;;;;;;;;;;;;;;3.44;100.00;97739.38;5069922;28;20344;-75
2023/01/19 05:53:35;;;;;;;;;;;;;;;3.27;100.00;97748.25;5069587;28;20633;-75
2023/01/19 05:56:04;;;;;;;;;;;;;;;3.21;100.00;97750.09;5071467;28;20382;-75
2023/01/19 05:58:30;;;;;;;;;;;;;;;3.46;100.00;97765.63;5051056;28;19926;-75
2023/01/19 06:00:55;;;;;;;;;;;;;;;2.76;100.00;97768.84;5048855;28;19920;-75
2023/01/19 06:03:20;;;;;;;;;;;;;;;2.88;100.00;97781.31;5068860;28;19985;-75
2023/01/19 06:05:45;;;;;;;;;;;;;;;3.28;100.00;97818.59;5066763;28;19920;-75
2023/01/19 06:08:10;;;;;;;;;;;;;;;3.34;100.00;97826.09;5068806;28;19920;-75
2023/01/19 06:10:36;;;;;;;;;;;;;;;3.26;100.00;97845.81;5068365;28;19917;-75
2023/01/19 06:13:01;;;;;;;;;;;;;;;3.13;100.00;97855.38;5069362;28;19970;-76
2023/01/19 06:15:26;;;;;;;;;;;;;;;3.53;100.00;97872.34;5068917;28;20532;-75
2023/01/19 06:17:52;;;;;;;;;;;;;;;3.93;100.00;97888.44;5045643;28;20018;-75
2023/01/19 06:20:17;;;;;;;;;;;;;;;3.49;100.00;97887.72;5074062;28;19924;-75
2023/01/19 06:22:42;;;;;;;;;;;;;;;3.47;100.00;97889.47;5073561;28;19912;-75
2023/01/19 06:25:08;;;;;;;;;;;;;;;3.53;100.00;97910.53;5074031;28;19951;-75
2023/01/19 06:27:33;;;;;;;;;;;;;;;3.56;100.00;97909.66;5073167;28;19923;-75
2023/01/19 06:29:58;;;;;;;;;;;;;;;3.67;100.00;97922.97;5074558;28;19947;-74
2023/01/19 06:32:24;;;;;;;;;;;;;;;3.23;100.00;97919.63;5073098;28;19986;-73
2023/01/19 06:34:49;;;;;;;;;;;;;;;3.27;100.00;97933.97;5073018;28;19924;-73
2023/01/19 06:37:15;;;;;;;;;;;;;;;3.78;100.00;97948.19;5073072;28;19916;-76
2023/01/19 06:39:41;;;;;;;;;;;;;;;3.58;100.00;97951.19;5072264;28;19924;-73
2023/01/19 06:42:06;;;;;;;;;;;;;;;3.55;100.00;97963.97;5073790;28;19969;-74
2023/01/19 06:44:31;;;;;;;;;;;;;;;3.55;100.00;97963.97;5071753;28;19921;-74
2023/01/19 06:46:57;;;;;;;;;;;;;;;3.28;100.00;97965.34;5074578;28;20007;-74
2023/01/19 06:49:22;;;;;;;;;;;;;;;3.21;100.00;97968.88;5046061;28;19923;-74
2023/01/19 06:51:47;;;;;;;;;;;;;;;3.24;100.00;97979.84;5054017;28;20390;-76
2023/01/19 06:54:12;;;;;;;;;;;;;;;2.97;100.00;97985.44;5054037;28;19976;-74
2023/01/19 06:56:37;;;;;;;;;;;;;;;2.88;100.00;97997.44;5048666;28;19916;-74
2023/01/19 06:59:03;;;;;;;;;;;;;;;3.42;100.00;98028.69;5073735;28;19920;-74
2023/01/19 07:01:28;;;;;;;;;;;;;;;3.24;100.00;98025.63;5071519;28;19927;-74
2023/01/19 07:03:53;;;;;;;;;;;;;;;3.14;100.00;98031.75;5072864;28;19973;-75
2023/01/19 07:06:18;;;;;;;;;;;;;;;3.19;100.00;98060.47;5055955;28;19977;-74
2023/01/19 07:08:44;;;;;;;;;;;;;;;3.08;100.00;98075.09;5073527;28;20274;-74
2023/01/19 07:11:11;;;;;;;;;;;;;;;2.75;100.00;98067.16;5070940;28;20138;-74
2023/01/19 07:13:36;;;;;;;;;;;;;;;3.06;100.00;98089.56;5072971;28;19973;-74
2023/01/19 07:16:06;;;;;;;;;;;;;;;2.99;100.00;98105.75;5046148;28;20616;-74
2023/01/19 07:18:31;;;;;;;;;;;;;;;2.75;100.00;98096.81;5053195;28;19920;-74
2023/01/19 07:20:57;;;;;;;;;;;;;;;3.24;100.00;98129.97;5071733;28;19965;-74
2023/01/19 07:23:22;;;;;;;;;;;;;;;2.78;100.00;98125.56;5052507;28;19916;-74
2023/01/19 07:25:47;;;;;;;;;;;;;;;3.13;100.00;98149.66;5053632;28;19950;-74
2023/01/19 07:28:14;;;;;;;;;;;;;;;3.22;99.52;98159.69;5071169;28;19921;-73
2023/01/19 07:30:40;;;;;;;;;;;;;;;3.21;100.00;98168.16;5053737;28;19931;-74
2023/01/19 07:33:05;;;;;;;;;;;;;;;2.85;100.00;98162.78;5070639;28;20474;-75
2023/01/19 07:35:31;;;;;;;;;;;;;;;3.49;100.00;98185.50;5052561;28;19920;-74
2023/01/19 07:37:57;;;;;;;;;;;;;;;2.76;100.00;98169.69;5051952;28;19927;-74
2023/01/19 07:40:22;;;;;;;;;;;;;;;3.06;100.00;98191.31;5055573;28;19921;-74
2023/01/19 07:42:49;;;;;;;;;;;;;;;3.20;100.00;98196.19;5051484;28;19942;-73
2023/01/19 07:45:15;;;;;;;;;;;;;;;2.93;100.00;98199.09;5045320;28;19927;-74
2023/01/19 07:47:43;;;;;;;;;;;;;;;2.65;100.00;98195.28;5071248;28;20276;-74
2023/01/19 07:50:09;;;;;;;;;;;;;;;3.34;97.36;98243.44;5069546;28;20421;-74
2023/01/19 07:52:35;;;;;;;;;;;;;;;2.62;100.00;98224.13;5053567;28;19967;-74
2023/01/19 07:55:00;;;;;;;;;;;;;;;2.95;100.00;98246.56;5070016;28;19970;-74
2023/01/19 07:57:25;;;;;;;;;;;;;;;2.82;100.00;98235.72;5071269;28;19916;-73
2023/01/19 07:59:50;;;;;;;;;;;;;;;3.35;95.87;98272.28;5070347;28;19923;-74
2023/01/19 08:02:16;;;;;;;;;;;;;;;3.04;99.72;98254.91;5058277;28;20454;-73
2023/01/19 08:04:42;;;;;;;;;;;;;;;3.20;97.77;98280.97;5073864;28;20580;-73
2023/01/19 08:07:08;;;;;;;;;;;;;;;2.81;99.64;98265.38;5070063;28;19959;-74
2023/01/19 08:09:33;;;;;;;;;;;;;;;2.89;99.71;98273.75;5067816;28;19999;-74
2023/01/19 08:11:59;;;;;;;;;;;;;;;3.00;97.61;98286.34;5067201;28;20132;-76
2023/01/19 08:14:24;;;;;;;;;;;;;;;3.10;98.16;98289.59;5069014;28;19916;-74
2023/01/19 08:16:49;;;;;;;;;;;;;;;3.37;96.36;98316.34;5049009;28;19920;-73
2023/01/19 08:19:14;;;;;;;;;;;;;;;3.75;97.51;98325.97;5068698;28;19920;-73
2023/01/19 08:21:39;;;;;;;;;;;;;;;3.01;100.00;98292.25;5066125;28;20027;-73
2023/01/19 08:24:05;;;;;;;;;;;;;;;3.58;100.00;98305.03;5068935;28;20006;-73
2023/01/19 08:26:31;;;;;;;;;;;;;;;3.14;100.00;98291.22;5067836;28;19916;-73
2023/01/19 08:28:57;;;;;;;;;;;;;;;3.61;100.00;98304.16;5049070;28;20850;-73
2023/01/19 08:31:22;;;;;;;;;;;;;;;3.47;100.00;98297.56;5051392;28;19916;-73
2023/01/19 08:33:48;;;;;;;;;;;;;;;3.20;100.00;98287.78;5050634;28;19923;-73
2023/01/19 08:36:13;;;;;;;;;;;;;;;3.39;100.00;98316.34;5067253;28;19945;-73
2023/01/19 08:38:42;;;;;;;;;;;;;;;3.69;100.00;98326.06;5049075;28;20315;-73
2023/01/19 08:41:07;;;;;;;;;;;;;;;3.18;100.00;98300.50;5066882;28;19938;-72
2023/01/19 08:43:32;;;;;;;;;;;;;;;3.90;100.00;98322.38;5067946;28;19916;-73
2023/01/19 08:45:58;;;;;;;;;;;;;;;3.84;100.00;98307.16;5066584;28;19916;-73
2023/01/19 08:48:23;;;;;;;;;;;;;;;3.61;100.00;98314.34;5065765;28;19931;-72
2023/01/19 08:50:48;;;;;;;;;;;;;;;3.46;100.00;98302.66;5064119;28;19916;-74
2023/01/19 08:53:14;;;;;;;;;;;;;;;3.85;100.00;98318.19;5049542;28;19975;-73
2023/01/19 08:55:39;;;;;;;;;;;;;;;3.78;100.00;98313.19;5049238;28;19919;-73
2023/01/19 08:58:05;;;;;;;;;;;;;;;3.75;100.00;98322.59;5069167;28;19920;-73
2023/01/19 09:00:32;;;;;;;;;;;;;;;3.72;100.00;98323.50;5050034;28;19924;-72
2023/01/19 09:02:58;;;;;;;;;;;;;;;3.70;100.00;98329.47;5051186;28;20502;-73
2023/01/19 09:05:23;;;;;;;;;;;;;;;3.79;100.00;98339.53;5067928;28;20007;-74
2023/01/19 09:07:48;;;;;;;;;;;;;;;3.15;100.00;98331.09;5048196;28;20399;-73
2023/01/19 09:10:15;;;;;;;;;;;;;;;3.33;100.00;98346.13;5049097;28;20480;-74
2023/01/19 09:12:40;;;;;;;;;;;;;;;3.46;100.00;98356.13;5048988;28;20556;-73
2023/01/19 09:15:06;;;;;;;;;;;;;;;3.99;100.00;98392.69;5066604;28;19912;-73
2023/01/19 09:17:31;;;;;;;;;;;;;;;4.17;100.00;98389.00;5048247;28;20336;-73
2023/01/19 09:19:57;;;;;;;;;;;;;;;4.00;100.00;98379.09;5070221;28;19975;-72
2023/01/19 09:22:22;;;;;;;;;;;;;;;4.05;100.00;98373.94;5068536;28;20267;-73
2023/01/19 09:24:47;;;;;;;;;;;;;;;4.11;100.00;98377.22;5067946;28;19945;-72
2023/01/19 09:27:13;;;;;;;;;;;;;;;4.09;100.00;98373.03;5069415;28;19982;-72
2023/01/19 09:29:38;;;;;;;;;;;;;;;3.96;100.00;98372.38;5066943;28;20151;-73
2023/01/19 09:32:03;;;;;;;;;;;;;;;4.29;100.00;98390.50;5068480;28;20034;-73
2023/01/19 09:34:30;;;;;;;;;;;;;;;4.09;100.00;98368.75;5068752;28;20006;-75
2023/01/19 09:36:55;;;;;;;;;;;;;;;4.11;100.00;98367.03;5068749;28;20556;-75
2023/01/19 09:39:20;;;;;;;;;;;;;;;4.27;100.00;98382.91;5051685;28;19981;-75
2023/01/19 09:41:46;;;;;;;;;;;;;;;3.89;100.00;98370.78;5068928;28;19912;-75
2023/01/19 09:44:16;;;;;;;;;;;;;;;3.90;100.00;98382.63;5052848;28;19924;-75
2023/01/19 09:46:41;;;;;;;;;;;;;;;5.29;100.00;98432.94;5051101;28;19935;-75
2023/01/19 09:49:16;;;;;;;;;;;;;;;4.61;100.00;98393.38;5070558;28;19916;-75
2023/01/19 09:51:45;;;;;;;;;;;;;;;4.55;100.00;98388.38;5053958;28;20383;-75
2023/01/19 09:54:11;;;;;;;;;;;;;;;3.84;100.00;98360.66;5054067;28;19924;-75
2023/01/19 09:56:37;;;;;;;;;;;;;;;4.06;100.00;98378.16;5073148;28;19973;-75
2023/01/19 09:59:09;;;;;;;;;;;;;;;3.49;100.00;98371.34;5052347;28;19922;-75
2023/01/19 10:01:53;;;;;;;;;;;;;;;3.72;100.00;98394.78;5054311;28;19940;-75
2023/01/19 10:04:24;;;;;;;;;;;;;;;4.36;100.00;98428.66;5071860;28;20319;-75
2023/01/19 10:06:50;;;;;;;;;;;;;;;3.57;100.00;98410.28;5071412;28;19931;-75
2023/01/19 10:09:36;;;;;;;;;;;;;;;3.48;100.00;98418.88;5046088;28;19913;-75
2023/01/19 10:12:07;;;;;;;;;;;;;;;4.05;100.00;98448.66;5044999;28;19919;-74
2023/01/19 10:14:35;;;;;;;;;;;;;;;4.09;100.00;98459.66;5056441;28;20084;-74
2023/01/19 10:17:07;;;;;;;;;;;;;;;4.22;100.00;98455.19;5046816;28;20378;-75
2023/01/19 10:19:35;;;;;;;;;;;;;;;3.94;100.00;98441.16;5054885;28;19921;-74
2023/01/19 10:22:02;;;;;;;;;;;;;;;3.68;100.00;98438.97;5047184;28;19922;-75
2023/01/19 10:24:54;;;;;;;;;;;;;;;3.24;100.00;98427.66;5054634;28;19923;-77
2023/01/19 10:27:21;;;;;;;;;;;;;;;3.53;100.00;98455.28;5069312;28;20976;-75
2023/01/19 10:29:46;;;;;;;;;;;;;;;3.20;100.00;98446.38;5054168;28;20400;-75
2023/01/19 10:32:21;;;;;;;;;;;;;;;3.46;97.57;98474.03;5055755;28;19956;-75
2023/01/19 10:34:46;;;;;;;;;;;;;;;2.96;98.29;98474.59;5072563;28;19988;-75
2023/01/19 10:37:11;;;;;;;;;;;;;;;3.06;92.09;98491.47;5073534;28;19916;-75
2023/01/19 10:39:37;;;;;;;;;;;;;;;2.77;90.87;98500.19;5073218;28;19931;-75
2023/01/19 10:42:02;;;;;;;;;;;;;;;3.12;87.48;98534.63;5045019;28;19927;-76
2023/01/19 10:44:28;;;;;;;;;;;;;;;3.40;84.45;98542.84;5055845;28;19916;-75
2023/01/19 10:46:54;;;;;;;;;;;;;;;3.38;86.20;98551.38;5055537;28;20295;-75
2023/01/19 10:49:30;;;;;;;;;;;;;;;3.63;88.22;98568.06;5054702;28;19923;-75
2023/01/19 10:51:55;;;;;;;;;;;;;;;3.74;89.14;98563.69;5072800;28;19920;-75
2023/01/19 10:54:20;;;;;;;;;;;;;;;4.57;88.37;98595.75;5072611;28;20011;-75
2023/01/19 10:56:53;;;;;;;;;;;;;;;4.05;95.37;98565.84;5053173;28;20645;-76
2023/01/19 10:59:33;;;;;;;;;;;;;;;3.72;97.94;98542.50;5052854;28;19974;-76
2023/01/19 11:02:20;;;;;;;;;;;;;;;3.86;96.43;98549.97;5073553;28;20007;-76
2023/01/19 11:04:48;;;;;;;;;;;;;;;3.70;95.50;98556.94;5071974;28;19916;-76
2023/01/19 11:07:14;;;;;;;;;;;;;;;3.94;94.44;98565.16;5053880;28;19966;-76
2023/01/19 11:09:39;;;;;;;;;;;;;;;3.67;97.15;98557.00;5071908;28;19956;-77
2023/01/19 11:12:04;;;;;;;;;;;;;;;3.72;95.02;98562.88;5053418;28;19912;-76
2023/01/19 11:14:29;;;;;;;;;;;;;;;3.84;92.60;98571.22;5054165;28;19999;-76
2023/01/19 11:16:55;;;;;;;;;;;;;;;3.93;95.79;98586.41;5053606;28;19948;-76
2023/01/19 11:19:23;;;;;;;;;;;;;;;3.62;96.66;98568.06;5053029;28;19990;-75
2023/01/19 11:21:48;;;;;;;;;;;;;;;3.72;95.19;98577.31;5052209;28;20366;-76
2023/01/19 11:24:15;;;;;;;;;;;;;;;3.87;97.15;98591.56;5053450;28;19912;-75
2023/01/19 11:26:40;;;;;;;;;;;;;;;3.71;97.47;98573.06;5071362;28;20019;-75
2023/01/19 11:29:05;;;;;;;;;;;;;;;4.01;94.62;98594.78;5071351;28;20000;-75
2023/01/19 11:31:32;;;;;;;;;;;;;;;3.98;96.92;98602.47;5052823;28;19923;-75
2023/01/19 11:33:58;;;;;;;;;;;;;;;3.68;97.00;98584.13;5044011;28;20389;-76
2023/01/19 11:36:23;;;;;;;;;;;;;;;3.80;96.06;98597.59;5054290;28;19985;-77
2023/01/19 11:38:50;;;;;;;;;;;;;;;3.75;95.54;98590.00;5071656;28;20606;-76
2023/01/19 11:41:21;;;;;;;;;;;;;;;3.64;95.46;98605.38;5053617;28;19920;-76
2023/01/19 11:43:50;;;;;;;;;;;;;;;3.69;94.44;98608.72;5071252;28;19970;-76
2023/01/19 11:46:16;;;;;;;;;;;;;;;3.66;93.43;98613.84;5052871;28;20012;-76
2023/01/19 11:48:41;;;;;;;;;;;;;;;3.53;95.27;98618.22;5052951;28;19997;-76
2023/01/19 11:51:09;;;;;;;;;;;;;;;4.05;93.75;98628.72;5073651;28;20581;-76
2023/01/19 11:53:34;;;;;;;;;;;;;;;4.12;95.53;98625.22;5053414;28;19927;-76
2023/01/19 11:56:05;;;;;;;;;;;;;;;3.67;98.48;98604.50;5054496;28;19916;-76
2023/01/19 11:58:31;;;;;;;;;;;;;;;4.12;95.09;98620.97;5051426;28;19916;-76
2023/01/19 12:00:59;;;;;;;;;;;;;;;3.94;98.80;98616.94;5052432;28;19922;-75
2023/01/19 12:03:30;;;;;;;;;;;;;;;3.74;99.05;98604.44;5053550;28;19967;-75
2023/01/19 12:05:57;;;;;;;;;;;;;;;3.71;98.13;98609.56;5070700;28;19916;-75
2023/01/19 12:08:42;;;;;;;;;;;;;;;4.13;96.20;98625.22;5052993;28;19955;-76
2023/01/19 12:11:09;;;;;;;;;;;;;;;3.84;96.93;98611.97;5052499;28;19916;-76
2023/01/19 12:13:34;;;;;;;;;;;;;;;3.86;97.32;98615.34;5052375;28;19916;-76
2023/01/19 12:16:06;;;;;;;;;;;;;;;3.74;99.84;98611.22;5070561;28;19927;-75
2023/01/19 12:18:42;;;;;;;;;;;;;;;3.95;99.38;98616.09;5053725;28;19939;-74
2023/01/19 12:21:08;;;;;;;;;;;;;;;4.46;99.77;98627.34;5053794;28;19916;-74
2023/01/19 12:23:33;;;;;;;;;;;;;;;4.15;100.00;98608.22;5069724;28;19916;-74
2023/01/19 12:26:01;;;;;;;;;;;;;;;3.84;100.00;98586.50;5070939;28;19920;-74
2023/01/19 12:28:27;;;;;;;;;;;;;;;4.67;100.00;98616.00;5051505;28;19921;-75
2023/01/19 12:30:53;;;;;;;;;;;;;;;4.76;100.00;98593.75;5052840;28;19916;-75
2023/01/19 12:33:32;;;;;;;;;;;;;;;4.75;100.00;98578.50;5053410;28;20064;-76
2023/01/19 12:35:59;;;;;;;;;;;;;;;5.18;100.00;98567.59;5069501;28;19916;-75
2023/01/19 12:38:44;;;;;;;;;;;;;;;5.19;100.00;98536.91;5051955;28;19916;-74
2023/01/19 12:41:20;;;;;;;;;;;;;;;4.52;100.00;98495.53;5051832;28;20366;-75
2023/01/19 12:44:04;;;;;;;;;;;;;;;4.94;100.00;98495.66;5051177;28;19969;-75
2023/01/19 12:46:29;;;;;;;;;;;;;;;4.68;100.00;98477.44;5071621;28;19923;-74
2023/01/19 12:48:54;;;;;;;;;;;;;;;4.90;100.00;98468.53;5053307;28;19916;-75
2023/01/19 12:51:23;;;;;;;;;;;;;;;5.23;100.00;98481.56;5050855;28;19925;-75
2023/01/19 12:53:58;;;;;;;;;;;;;;;5.02;100.00;98458.09;5068158;28;19962;-75